sensor_id;sensor_type;location;lat;lon;timestamp;P1;durP1;ratioP1;P2;durP2;ratioP2
15936;SDS011;9163;48.818;8.976;2022-08-01T00:00:39;4.10;;;2.40;;
15936;SDS011;9163;48.818;8.976;2022-08-01T00:03:06;3.67;;;1.90;;
15936;SDS011;9163;48.818;8.976;2022-08-01T00:05:33;2.17;;;2.03;;
15936;SDS011;9163;48.818;8.976;2022-08-01T00:08:02;3.03;;;2.20;;
15936;SDS011;9163;48.818;8.976;2022-08-01T00:10:30;3.37;;;2.23;;
15936;SDS011;9163;48.818;8.976;2022-08-01T00:12:57;2.43;;;2.17;;
15936;SDS011;9163;48.818;8.976;2022-08-01T00:15:24;2.57;;;1.93;;
15936;SDS011;9163;48.818;8.976;2022-08-01T00:17:52;3.70;;;1.93;;
15936;SDS011;9163;48.818;8.976;2022-08-01T00:20:19;4.00;;;2.20;;
15936;SDS011;9163;48.818;8.976;2022-08-01T00:22:47;3.37;;;2.13;;
15936;SDS011;9163;48.818;8.976;2022-08-01T00:25:15;3.80;;;2.00;;
15936;SDS011;9163;48.818;8.976;2022-08-01T00:27:43;3.43;;;2.10;;
15936;SDS011;9163;48.818;8.976;2022-08-01T00:30:10;2.47;;;2.20;;
15936;SDS011;9163;48.818;8.976;2022-08-01T00:32:37;2.60;;;2.10;;
15936;SDS011;9163;48.818;8.976;2022-08-01T00:35:05;3.50;;;2.40;;
15936;SDS011;9163;48.818;8.976;2022-08-01T00:37:33;3.93;;;2.03;;
15936;SDS011;9163;48.818;8.976;2022-08-01T00:40:00;2.37;;;2.00;;
15936;SDS011;9163;48.818;8.976;2022-08-01T00:42:29;4.13;;;2.27;;
15936;SDS011;9163;48.818;8.976;2022-08-01T00:44:56;3.60;;;2.53;;
15936;SDS011;9163;48.818;8.976;2022-08-01T00:47:23;2.47;;;2.03;;
15936;SDS011;9163;48.818;8.976;2022-08-01T00:49:51;2.50;;;2.10;;
15936;SDS011;9163;48.818;8.976;2022-08-01T00:52:18;3.30;;;2.10;;
15936;SDS011;9163;48.818;8.976;2022-08-01T00:54:46;3.80;;;2.57;;
15936;SDS011;9163;48.818;8.976;2022-08-01T00:57:14;3.57;;;2.10;;
15936;SDS011;9163;48.818;8.976;2022-08-01T00:59:42;3.27;;;2.13;;
15936;SDS011;9163;48.818;8.976;2022-08-01T01:02:10;2.70;;;2.40;;
15936;SDS011;9163;48.818;8.976;2022-08-01T01:04:37;2.43;;;2.20;;
15936;SDS011;9163;48.818;8.976;2022-08-01T01:07:06;3.40;;;2.30;;
15936;SDS011;9163;48.818;8.976;2022-08-01T01:09:38;2.90;;;2.50;;
15936;SDS011;9163;48.818;8.976;2022-08-01T01:12:19;2.50;;;2.00;;
15936;SDS011;9163;48.818;8.976;2022-08-01T01:14:54;2.40;;;2.20;;
15936;SDS011;9163;48.818;8.976;2022-08-01T01:17:31;2.53;;;2.30;;
15936;SDS011;9163;48.818;8.976;2022-08-01T01:20:15;2.70;;;2.40;;
15936;SDS011;9163;48.818;8.976;2022-08-01T01:22:47;3.70;;;2.30;;
15936;SDS011;9163;48.818;8.976;2022-08-01T01:25:26;2.83;;;2.37;;
15936;SDS011;9163;48.818;8.976;2022-08-01T01:28:08;3.67;;;2.43;;
15936;SDS011;9163;48.818;8.976;2022-08-01T01:30:43;2.83;;;2.47;;
15936;SDS011;9163;48.818;8.976;2022-08-01T01:33:13;3.30;;;2.50;;
15936;SDS011;9163;48.818;8.976;2022-08-01T01:35:45;3.13;;;2.60;;
15936;SDS011;9163;48.818;8.976;2022-08-01T01:38:16;5.37;;;2.60;;
15936;SDS011;9163;48.818;8.976;2022-08-01T01:40:46;4.50;;;2.70;;
15936;SDS011;9163;48.818;8.976;2022-08-01T01:43:15;4.13;;;2.60;;
15936;SDS011;9163;48.818;8.976;2022-08-01T01:45:45;3.17;;;2.30;;
15936;SDS011;9163;48.818;8.976;2022-08-01T01:48:15;3.93;;;2.30;;
15936;SDS011;9163;48.818;8.976;2022-08-01T01:50:46;3.87;;;2.37;;
15936;SDS011;9163;48.818;8.976;2022-08-01T01:53:15;3.87;;;2.37;;
15936;SDS011;9163;48.818;8.976;2022-08-01T01:55:45;3.40;;;2.63;;
15936;SDS011;9163;48.818;8.976;2022-08-01T01:58:15;3.47;;;2.60;;
15936;SDS011;9163;48.818;8.976;2022-08-01T02:00:46;3.23;;;2.40;;
15936;SDS011;9163;48.818;8.976;2022-08-01T02:03:14;2.97;;;2.50;;
15936;SDS011;9163;48.818;8.976;2022-08-01T02:05:44;4.33;;;2.57;;
15936;SDS011;9163;48.818;8.976;2022-08-01T02:08:12;2.60;;;2.40;;
15936;SDS011;9163;48.818;8.976;2022-08-01T02:10:43;4.00;;;2.40;;
15936;SDS011;9163;48.818;8.976;2022-08-01T02:13:32;3.63;;;2.70;;
15936;SDS011;9163;48.818;8.976;2022-08-01T02:16:04;2.77;;;2.57;;
15936;SDS011;9163;48.818;8.976;2022-08-01T02:18:32;2.80;;;2.50;;
15936;SDS011;9163;48.818;8.976;2022-08-01T02:20:59;2.77;;;2.50;;
15936;SDS011;9163;48.818;8.976;2022-08-01T02:23:31;2.67;;;2.33;;
15936;SDS011;9163;48.818;8.976;2022-08-01T02:26:00;3.73;;;2.40;;
15936;SDS011;9163;48.818;8.976;2022-08-01T02:28:32;2.80;;;2.50;;
15936;SDS011;9163;48.818;8.976;2022-08-01T02:31:06;2.40;;;2.20;;
15936;SDS011;9163;48.818;8.976;2022-08-01T02:33:38;3.17;;;2.47;;
15936;SDS011;9163;48.818;8.976;2022-08-01T02:36:08;2.70;;;2.33;;
15936;SDS011;9163;48.818;8.976;2022-08-01T02:38:39;3.37;;;2.57;;
15936;SDS011;9163;48.818;8.976;2022-08-01T02:41:09;2.93;;;2.57;;
15936;SDS011;9163;48.818;8.976;2022-08-01T02:43:40;3.37;;;2.20;;
15936;SDS011;9163;48.818;8.976;2022-08-01T02:46:20;3.00;;;2.33;;
15936;SDS011;9163;48.818;8.976;2022-08-01T02:48:51;3.80;;;2.83;;
15936;SDS011;9163;48.818;8.976;2022-08-01T02:51:20;3.63;;;2.70;;
15936;SDS011;9163;48.818;8.976;2022-08-01T02:53:49;3.43;;;2.37;;
15936;SDS011;9163;48.818;8.976;2022-08-01T02:56:18;2.93;;;2.60;;
15936;SDS011;9163;48.818;8.976;2022-08-01T02:58:46;3.13;;;2.53;;
15936;SDS011;9163;48.818;8.976;2022-08-01T03:01:17;3.67;;;2.57;;
15936;SDS011;9163;48.818;8.976;2022-08-01T03:03:45;3.10;;;2.53;;
15936;SDS011;9163;48.818;8.976;2022-08-01T03:06:13;2.70;;;2.50;;
15936;SDS011;9163;48.818;8.976;2022-08-01T03:08:42;3.57;;;2.57;;
15936;SDS011;9163;48.818;8.976;2022-08-01T03:11:10;3.37;;;2.53;;
15936;SDS011;9163;48.818;8.976;2022-08-01T03:13:40;2.57;;;2.30;;
15936;SDS011;9163;48.818;8.976;2022-08-01T03:16:09;4.17;;;2.77;;
15936;SDS011;9163;48.818;8.976;2022-08-01T03:18:39;2.67;;;2.47;;
15936;SDS011;9163;48.818;8.976;2022-08-01T03:21:10;2.77;;;2.37;;
15936;SDS011;9163;48.818;8.976;2022-08-01T03:23:40;3.13;;;2.73;;
15936;SDS011;9163;48.818;8.976;2022-08-01T03:26:08;3.07;;;2.43;;
15936;SDS011;9163;48.818;8.976;2022-08-01T03:28:37;2.60;;;2.40;;
15936;SDS011;9163;48.818;8.976;2022-08-01T03:31:06;4.47;;;2.80;;
15936;SDS011;9163;48.818;8.976;2022-08-01T03:33:35;5.57;;;2.60;;
15936;SDS011;9163;48.818;8.976;2022-08-01T03:36:04;4.23;;;2.50;;
15936;SDS011;9163;48.818;8.976;2022-08-01T03:38:35;3.70;;;2.50;;
15936;SDS011;9163;48.818;8.976;2022-08-01T03:41:06;3.40;;;2.43;;
15936;SDS011;9163;48.818;8.976;2022-08-01T03:43:38;4.53;;;2.70;;
15936;SDS011;9163;48.818;8.976;2022-08-01T03:46:10;4.07;;;2.53;;
15936;SDS011;9163;48.818;8.976;2022-08-01T03:48:43;2.67;;;2.43;;
15936;SDS011;9163;48.818;8.976;2022-08-01T03:51:16;3.70;;;2.63;;
15936;SDS011;9163;48.818;8.976;2022-08-01T03:53:45;2.80;;;2.60;;
15936;SDS011;9163;48.818;8.976;2022-08-01T03:56:16;2.73;;;2.50;;
15936;SDS011;9163;48.818;8.976;2022-08-01T03:58:46;3.00;;;2.33;;
15936;SDS011;9163;48.818;8.976;2022-08-01T04:01:14;3.33;;;2.63;;
15936;SDS011;9163;48.818;8.976;2022-08-01T04:03:42;3.23;;;2.73;;
15936;SDS011;9163;48.818;8.976;2022-08-01T04:06:10;4.60;;;2.60;;
15936;SDS011;9163;48.818;8.976;2022-08-01T04:08:40;3.83;;;2.63;;
15936;SDS011;9163;48.818;8.976;2022-08-01T04:11:08;5.90;;;2.53;;
15936;SDS011;9163;48.818;8.976;2022-08-01T04:13:36;6.20;;;2.40;;
15936;SDS011;9163;48.818;8.976;2022-08-01T04:16:03;4.27;;;2.60;;
15936;SDS011;9163;48.818;8.976;2022-08-01T04:18:31;4.40;;;2.50;;
15936;SDS011;9163;48.818;8.976;2022-08-01T04:20:59;5.20;;;2.60;;
15936;SDS011;9163;48.818;8.976;2022-08-01T04:23:27;3.43;;;2.40;;
15936;SDS011;9163;48.818;8.976;2022-08-01T04:25:58;3.17;;;2.60;;
15936;SDS011;9163;48.818;8.976;2022-08-01T04:28:29;3.93;;;2.33;;
15936;SDS011;9163;48.818;8.976;2022-08-01T04:30:58;5.33;;;2.30;;
15936;SDS011;9163;48.818;8.976;2022-08-01T04:33:26;2.60;;;2.40;;
15936;SDS011;9163;48.818;8.976;2022-08-01T04:35:55;3.63;;;2.50;;
15936;SDS011;9163;48.818;8.976;2022-08-01T04:38:26;2.73;;;2.30;;
15936;SDS011;9163;48.818;8.976;2022-08-01T04:40:55;5.40;;;2.40;;
15936;SDS011;9163;48.818;8.976;2022-08-01T04:43:25;2.53;;;2.30;;
15936;SDS011;9163;48.818;8.976;2022-08-01T04:45:52;5.57;;;2.60;;
15936;SDS011;9163;48.818;8.976;2022-08-01T04:48:21;4.13;;;2.70;;
15936;SDS011;9163;48.818;8.976;2022-08-01T04:50:51;3.93;;;2.73;;
15936;SDS011;9163;48.818;8.976;2022-08-01T04:53:19;3.03;;;2.73;;
15936;SDS011;9163;48.818;8.976;2022-08-01T04:55:48;3.43;;;2.80;;
15936;SDS011;9163;48.818;8.976;2022-08-01T04:58:15;3.43;;;2.70;;
15936;SDS011;9163;48.818;8.976;2022-08-01T05:00:44;4.67;;;3.07;;
15936;SDS011;9163;48.818;8.976;2022-08-01T05:03:12;5.23;;;3.50;;
15936;SDS011;9163;48.818;8.976;2022-08-01T05:05:39;4.60;;;3.00;;
15936;SDS011;9163;48.818;8.976;2022-08-01T05:08:07;3.47;;;2.80;;
15936;SDS011;9163;48.818;8.976;2022-08-01T05:10:34;3.20;;;2.90;;
15936;SDS011;9163;48.818;8.976;2022-08-01T05:13:02;6.17;;;2.90;;
15936;SDS011;9163;48.818;8.976;2022-08-01T05:15:32;3.63;;;2.50;;
15936;SDS011;9163;48.818;8.976;2022-08-01T05:18:00;3.40;;;2.60;;
15936;SDS011;9163;48.818;8.976;2022-08-01T05:20:28;5.10;;;2.70;;
15936;SDS011;9163;48.818;8.976;2022-08-01T05:22:55;4.03;;;2.70;;
15936;SDS011;9163;48.818;8.976;2022-08-01T05:25:22;5.30;;;2.83;;
15936;SDS011;9163;48.818;8.976;2022-08-01T05:27:50;5.20;;;2.90;;
15936;SDS011;9163;48.818;8.976;2022-08-01T05:30:17;4.07;;;2.60;;
15936;SDS011;9163;48.818;8.976;2022-08-01T05:32:45;3.23;;;2.53;;
15936;SDS011;9163;48.818;8.976;2022-08-01T05:35:14;3.87;;;2.90;;
15936;SDS011;9163;48.818;8.976;2022-08-01T05:37:41;5.57;;;2.83;;
15936;SDS011;9163;48.818;8.976;2022-08-01T05:40:09;5.13;;;2.83;;
15936;SDS011;9163;48.818;8.976;2022-08-01T05:42:37;2.60;;;2.40;;
15936;SDS011;9163;48.818;8.976;2022-08-01T05:45:04;4.40;;;2.33;;
15936;SDS011;9163;48.818;8.976;2022-08-01T05:47:32;2.77;;;2.47;;
15936;SDS011;9163;48.818;8.976;2022-08-01T05:49:59;3.73;;;2.20;;
15936;SDS011;9163;48.818;8.976;2022-08-01T05:52:28;4.13;;;2.10;;
15936;SDS011;9163;48.818;8.976;2022-08-01T05:54:56;3.67;;;2.20;;
15936;SDS011;9163;48.818;8.976;2022-08-01T05:57:23;2.33;;;2.00;;
15936;SDS011;9163;48.818;8.976;2022-08-01T05:59:50;3.23;;;2.00;;
15936;SDS011;9163;48.818;8.976;2022-08-01T06:02:18;3.63;;;2.03;;
15936;SDS011;9163;48.818;8.976;2022-08-01T06:04:45;3.00;;;1.90;;
15936;SDS011;9163;48.818;8.976;2022-08-01T06:07:12;3.27;;;2.20;;
15936;SDS011;9163;48.818;8.976;2022-08-01T06:09:41;2.13;;;1.90;;
15936;SDS011;9163;48.818;8.976;2022-08-01T06:12:09;2.93;;;2.20;;
15936;SDS011;9163;48.818;8.976;2022-08-01T06:14:36;3.27;;;2.00;;
15936;SDS011;9163;48.818;8.976;2022-08-01T06:17:04;3.80;;;1.97;;
15936;SDS011;9163;48.818;8.976;2022-08-01T06:19:31;2.73;;;2.03;;
15936;SDS011;9163;48.818;8.976;2022-08-01T06:21:59;2.27;;;1.83;;
15936;SDS011;9163;48.818;8.976;2022-08-01T06:24:26;2.60;;;2.03;;
15936;SDS011;9163;48.818;8.976;2022-08-01T06:26:55;2.03;;;1.87;;
15936;SDS011;9163;48.818;8.976;2022-08-01T06:29:22;3.27;;;1.80;;
15936;SDS011;9163;48.818;8.976;2022-08-01T06:31:50;4.27;;;1.77;;
15936;SDS011;9163;48.818;8.976;2022-08-01T06:34:17;1.67;;;1.50;;
15936;SDS011;9163;48.818;8.976;2022-08-01T06:36:44;5.03;;;1.77;;
15936;SDS011;9163;48.818;8.976;2022-08-01T06:39:12;1.97;;;1.67;;
15936;SDS011;9163;48.818;8.976;2022-08-01T06:41:39;2.43;;;1.70;;
15936;SDS011;9163;48.818;8.976;2022-08-01T06:44:09;3.37;;;1.67;;
15936;SDS011;9163;48.818;8.976;2022-08-01T06:46:36;1.80;;;1.57;;
15936;SDS011;9163;48.818;8.976;2022-08-01T06:49:04;1.90;;;1.40;;
15936;SDS011;9163;48.818;8.976;2022-08-01T06:51:31;1.70;;;1.50;;
15936;SDS011;9163;48.818;8.976;2022-08-01T06:53:58;1.67;;;1.20;;
15936;SDS011;9163;48.818;8.976;2022-08-01T06:56:26;3.27;;;1.63;;
15936;SDS011;9163;48.818;8.976;2022-08-01T06:58:53;5.50;;;1.60;;
15936;SDS011;9163;48.818;8.976;2022-08-01T07:01:27;1.77;;;1.30;;
15936;SDS011;9163;48.818;8.976;2022-08-01T07:03:55;3.37;;;1.43;;
15936;SDS011;9163;48.818;8.976;2022-08-01T07:06:22;2.00;;;1.43;;
15936;SDS011;9163;48.818;8.976;2022-08-01T07:08:50;3.27;;;1.40;;
15936;SDS011;9163;48.818;8.976;2022-08-01T07:11:18;1.60;;;1.37;;
15936;SDS011;9163;48.818;8.976;2022-08-01T07:13:46;1.97;;;1.40;;
15936;SDS011;9163;48.818;8.976;2022-08-01T07:16:14;2.17;;;1.50;;
15936;SDS011;9163;48.818;8.976;2022-08-01T07:18:44;2.40;;;1.50;;
15936;SDS011;9163;48.818;8.976;2022-08-01T07:21:11;2.07;;;1.50;;
15936;SDS011;9163;48.818;8.976;2022-08-01T07:23:38;2.17;;;1.70;;
15936;SDS011;9163;48.818;8.976;2022-08-01T07:26:06;2.13;;;1.45;;
15936;SDS011;9163;48.818;8.976;2022-08-01T07:28:33;2.55;;;1.33;;
15936;SDS011;9163;48.818;8.976;2022-08-01T07:31:01;2.00;;;1.45;;
15936;SDS011;9163;48.818;8.976;2022-08-01T07:33:28;2.67;;;1.50;;
15936;SDS011;9163;48.818;8.976;2022-08-01T07:35:57;3.90;;;1.65;;
15936;SDS011;9163;48.818;8.976;2022-08-01T07:38:24;1.70;;;1.60;;
15936;SDS011;9163;48.818;8.976;2022-08-01T07:40:54;1.65;;;1.40;;
15936;SDS011;9163;48.818;8.976;2022-08-01T07:43:22;1.58;;;1.30;;
15936;SDS011;9163;48.818;8.976;2022-08-01T07:45:50;1.70;;;1.60;;
15936;SDS011;9163;48.818;8.976;2022-08-01T07:48:17;2.28;;;1.75;;
15936;SDS011;9163;48.818;8.976;2022-08-01T07:50:46;1.90;;;1.58;;
15936;SDS011;9163;48.818;8.976;2022-08-01T07:53:15;2.25;;;1.40;;
15936;SDS011;9163;48.818;8.976;2022-08-01T07:55:43;3.55;;;1.70;;
15936;SDS011;9163;48.818;8.976;2022-08-01T07:58:11;1.98;;;1.70;;
15936;SDS011;9163;48.818;8.976;2022-08-01T08:00:39;1.77;;;1.67;;
15936;SDS011;9163;48.818;8.976;2022-08-01T08:03:06;2.75;;;2.00;;
15936;SDS011;9163;48.818;8.976;2022-08-01T08:05:34;2.33;;;1.73;;
15936;SDS011;9163;48.818;8.976;2022-08-01T08:08:01;2.17;;;1.73;;
15936;SDS011;9163;48.818;8.976;2022-08-01T08:10:33;2.95;;;1.77;;
15936;SDS011;9163;48.818;8.976;2022-08-01T08:13:01;2.03;;;1.77;;
15936;SDS011;9163;48.818;8.976;2022-08-01T08:15:28;1.98;;;1.75;;
15936;SDS011;9163;48.818;8.976;2022-08-01T08:17:56;2.33;;;1.73;;
15936;SDS011;9163;48.818;8.976;2022-08-01T08:20:23;4.65;;;2.20;;
15936;SDS011;9163;48.818;8.976;2022-08-01T08:22:52;2.85;;;2.15;;
15936;SDS011;9163;48.818;8.976;2022-08-01T08:25:20;3.00;;;2.28;;
15936;SDS011;9163;48.818;8.976;2022-08-01T08:27:50;2.95;;;2.38;;
15936;SDS011;9163;48.818;8.976;2022-08-01T08:30:17;3.17;;;2.28;;
15936;SDS011;9163;48.818;8.976;2022-08-01T08:32:45;3.22;;;2.20;;
15936;SDS011;9163;48.818;8.976;2022-08-01T08:35:13;3.58;;;2.60;;
15936;SDS011;9163;48.818;8.976;2022-08-01T08:37:40;4.15;;;2.45;;
15936;SDS011;9163;48.818;8.976;2022-08-01T08:40:08;2.80;;;2.13;;
15936;SDS011;9163;48.818;8.976;2022-08-01T08:42:38;3.65;;;3.35;;
15936;SDS011;9163;48.818;8.976;2022-08-01T08:45:09;4.82;;;3.25;;
15936;SDS011;9163;48.818;8.976;2022-08-01T08:47:37;4.40;;;4.00;;
15936;SDS011;9163;48.818;8.976;2022-08-01T08:50:04;3.60;;;3.30;;
15936;SDS011;9163;48.818;8.976;2022-08-01T08:52:33;3.85;;;3.55;;
15936;SDS011;9163;48.818;8.976;2022-08-01T08:55:05;5.70;;;3.60;;
15936;SDS011;9163;48.818;8.976;2022-08-01T08:57:33;5.60;;;3.95;;
15936;SDS011;9163;48.818;8.976;2022-08-01T09:00:06;6.20;;;4.97;;
15936;SDS011;9163;48.818;8.976;2022-08-01T09:02:39;4.90;;;4.50;;
15936;SDS011;9163;48.818;8.976;2022-08-01T09:05:08;4.30;;;3.90;;
15936;SDS011;9163;48.818;8.976;2022-08-01T09:07:36;4.55;;;3.97;;
15936;SDS011;9163;48.818;8.976;2022-08-01T09:10:03;4.88;;;3.90;;
15936;SDS011;9163;48.818;8.976;2022-08-01T09:12:32;6.15;;;5.53;;
15936;SDS011;9163;48.818;8.976;2022-08-01T09:15:00;6.45;;;5.70;;
15936;SDS011;9163;48.818;8.976;2022-08-01T09:17:30;5.07;;;4.57;;
15936;SDS011;9163;48.818;8.976;2022-08-01T09:20:06;4.80;;;4.32;;
15936;SDS011;9163;48.818;8.976;2022-08-01T09:22:48;4.60;;;4.20;;
15936;SDS011;9163;48.818;8.976;2022-08-01T09:25:16;4.80;;;4.30;;
15936;SDS011;9163;48.818;8.976;2022-08-01T09:27:45;4.47;;;4.07;;
15936;SDS011;9163;48.818;8.976;2022-08-01T09:30:13;4.50;;;3.60;;
15936;SDS011;9163;48.818;8.976;2022-08-01T09:32:57;4.45;;;3.75;;
15936;SDS011;9163;48.818;8.976;2022-08-01T09:35:27;3.95;;;2.95;;
15936;SDS011;9163;48.818;8.976;2022-08-01T09:38:16;3.33;;;3.03;;
15936;SDS011;9163;48.818;8.976;2022-08-01T09:40:46;2.90;;;2.70;;
15936;SDS011;9163;48.818;8.976;2022-08-01T09:43:15;4.45;;;2.30;;
15936;SDS011;9163;48.818;8.976;2022-08-01T09:45:46;2.97;;;2.72;;
15936;SDS011;9163;48.818;8.976;2022-08-01T09:48:15;2.97;;;2.45;;
15936;SDS011;9163;48.818;8.976;2022-08-01T09:50:44;2.85;;;2.58;;
15936;SDS011;9163;48.818;8.976;2022-08-01T09:53:13;3.63;;;2.50;;
15936;SDS011;9163;48.818;8.976;2022-08-01T09:55:41;3.30;;;3.10;;
15936;SDS011;9163;48.818;8.976;2022-08-01T09:58:08;3.05;;;2.20;;
15936;SDS011;9163;48.818;8.976;2022-08-01T10:00:37;2.80;;;2.38;;
15936;SDS011;9163;48.818;8.976;2022-08-01T10:03:20;2.83;;;2.45;;
15936;SDS011;9163;48.818;8.976;2022-08-01T10:05:49;3.00;;;2.42;;
15936;SDS011;9163;48.818;8.976;2022-08-01T10:08:18;3.65;;;3.33;;
15936;SDS011;9163;48.818;8.976;2022-08-01T10:13:34;3.05;;;2.85;;
15936;SDS011;9163;48.818;8.976;2022-08-01T10:16:01;3.28;;;3.00;;
15936;SDS011;9163;48.818;8.976;2022-08-01T10:18:32;4.15;;;3.60;;
15936;SDS011;9163;48.818;8.976;2022-08-01T10:21:01;4.05;;;3.75;;
15936;SDS011;9163;48.818;8.976;2022-08-01T10:23:30;3.38;;;3.08;;
15936;SDS011;9163;48.818;8.976;2022-08-01T10:26:01;3.83;;;3.50;;
15936;SDS011;9163;48.818;8.976;2022-08-01T10:28:31;4.55;;;3.17;;
15936;SDS011;9163;48.818;8.976;2022-08-01T10:31:00;3.50;;;3.20;;
15936;SDS011;9163;48.818;8.976;2022-08-01T10:33:28;3.90;;;3.58;;
15936;SDS011;9163;48.818;8.976;2022-08-01T10:35:57;3.95;;;3.45;;
15936;SDS011;9163;48.818;8.976;2022-08-01T10:38:25;3.35;;;3.05;;
15936;SDS011;9163;48.818;8.976;2022-08-01T10:40:54;3.85;;;2.90;;
15936;SDS011;9163;48.818;8.976;2022-08-01T10:43:23;3.00;;;2.70;;
15936;SDS011;9163;48.818;8.976;2022-08-01T10:45:50;3.38;;;2.80;;
15936;SDS011;9163;48.818;8.976;2022-08-01T10:48:19;2.55;;;2.35;;
15936;SDS011;9163;48.818;8.976;2022-08-01T10:50:51;2.70;;;2.50;;
15936;SDS011;9163;48.818;8.976;2022-08-01T10:53:22;2.60;;;2.40;;
15936;SDS011;9163;48.818;8.976;2022-08-01T10:55:51;3.78;;;2.20;;
15936;SDS011;9163;48.818;8.976;2022-08-01T10:58:26;2.92;;;2.30;;
15936;SDS011;9163;48.818;8.976;2022-08-01T11:03:43;2.60;;;2.38;;
15936;SDS011;9163;48.818;8.976;2022-08-01T11:06:15;3.35;;;2.17;;
15936;SDS011;9163;48.818;8.976;2022-08-01T11:08:50;5.10;;;2.08;;
15936;SDS011;9163;48.818;8.976;2022-08-01T11:11:19;2.67;;;1.92;;
15936;SDS011;9163;48.818;8.976;2022-08-01T11:14:00;3.10;;;2.25;;
15936;SDS011;9163;48.818;8.976;2022-08-01T11:16:32;2.53;;;1.95;;
15936;SDS011;9163;48.818;8.976;2022-08-01T11:19:02;2.58;;;2.00;;
15936;SDS011;9163;48.818;8.976;2022-08-01T11:27:24;3.28;;;2.17;;
15936;SDS011;9163;48.818;8.976;2022-08-01T11:32:55;2.13;;;1.90;;
15936;SDS011;9163;48.818;8.976;2022-08-01T11:35:23;2.20;;;2.00;;
15936;SDS011;9163;48.818;8.976;2022-08-01T11:37:52;3.50;;;2.05;;
15936;SDS011;9163;48.818;8.976;2022-08-01T11:40:23;2.50;;;2.08;;
15936;SDS011;9163;48.818;8.976;2022-08-01T11:45:50;2.35;;;2.03;;
15936;SDS011;9163;48.818;8.976;2022-08-01T11:48:20;3.25;;;1.95;;
15936;SDS011;9163;48.818;8.976;2022-08-01T11:50:49;2.00;;;1.77;;
15936;SDS011;9163;48.818;8.976;2022-08-01T11:53:17;3.20;;;1.80;;
15936;SDS011;9163;48.818;8.976;2022-08-01T11:55:47;2.47;;;1.95;;
15936;SDS011;9163;48.818;8.976;2022-08-01T11:58:19;4.05;;;2.22;;
15936;SDS011;9163;48.818;8.976;2022-08-01T12:00:52;2.25;;;2.03;;
15936;SDS011;9163;48.818;8.976;2022-08-01T12:03:24;3.25;;;1.90;;
15936;SDS011;9163;48.818;8.976;2022-08-01T12:05:53;2.58;;;2.15;;
15936;SDS011;9163;48.818;8.976;2022-08-01T12:08:24;2.60;;;2.10;;
15936;SDS011;9163;48.818;8.976;2022-08-01T12:10:54;2.50;;;2.05;;
15936;SDS011;9163;48.818;8.976;2022-08-01T12:13:28;4.10;;;2.33;;
15936;SDS011;9163;48.818;8.976;2022-08-01T12:16:07;4.00;;;2.20;;
15936;SDS011;9163;48.818;8.976;2022-08-01T12:18:37;2.10;;;1.90;;
15936;SDS011;9163;48.818;8.976;2022-08-01T12:21:05;3.53;;;1.98;;
15936;SDS011;9163;48.818;8.976;2022-08-01T12:23:32;3.10;;;2.03;;
15936;SDS011;9163;48.818;8.976;2022-08-01T12:26:01;2.03;;;1.85;;
15936;SDS011;9163;48.818;8.976;2022-08-01T12:28:29;3.28;;;2.00;;
15936;SDS011;9163;48.818;8.976;2022-08-01T12:30:57;1.90;;;1.73;;
15936;SDS011;9163;48.818;8.976;2022-08-01T12:33:24;1.55;;;1.45;;
15936;SDS011;9163;48.818;8.976;2022-08-01T12:35:53;4.18;;;1.80;;
15936;SDS011;9163;48.818;8.976;2022-08-01T12:38:21;2.08;;;1.88;;
15936;SDS011;9163;48.818;8.976;2022-08-01T12:40:51;2.33;;;1.83;;
15936;SDS011;9163;48.818;8.976;2022-08-01T12:43:21;2.20;;;1.80;;
15936;SDS011;9163;48.818;8.976;2022-08-01T12:45:51;2.05;;;1.88;;
15936;SDS011;9163;48.818;8.976;2022-08-01T12:48:19;2.42;;;1.88;;
15936;SDS011;9163;48.818;8.976;2022-08-01T12:50:47;2.70;;;2.00;;
15936;SDS011;9163;48.818;8.976;2022-08-01T12:53:16;2.63;;;1.83;;
15936;SDS011;9163;48.818;8.976;2022-08-01T12:55:44;2.90;;;2.10;;
15936;SDS011;9163;48.818;8.976;2022-08-01T12:58:13;2.72;;;1.83;;
15936;SDS011;9163;48.818;8.976;2022-08-01T13:00:44;3.22;;;1.80;;
15936;SDS011;9163;48.818;8.976;2022-08-01T13:03:13;3.45;;;1.90;;
15936;SDS011;9163;48.818;8.976;2022-08-01T13:05:42;2.15;;;1.80;;
15936;SDS011;9163;48.818;8.976;2022-08-01T13:08:10;2.08;;;1.98;;
15936;SDS011;9163;48.818;8.976;2022-08-01T13:10:39;3.10;;;2.00;;
15936;SDS011;9163;48.818;8.976;2022-08-01T13:13:07;2.70;;;2.03;;
15936;SDS011;9163;48.818;8.976;2022-08-01T13:15:36;1.80;;;1.70;;
15936;SDS011;9163;48.818;8.976;2022-08-01T13:21:06;2.30;;;2.10;;
15936;SDS011;9163;48.818;8.976;2022-08-01T13:23:35;2.30;;;2.10;;
15936;SDS011;9163;48.818;8.976;2022-08-01T13:26:02;2.08;;;1.90;;
15936;SDS011;9163;48.818;8.976;2022-08-01T13:28:30;3.28;;;2.10;;
15936;SDS011;9163;48.818;8.976;2022-08-01T13:30:59;3.00;;;2.05;;
15936;SDS011;9163;48.818;8.976;2022-08-01T13:33:41;2.10;;;1.90;;
15936;SDS011;9163;48.818;8.976;2022-08-01T13:36:10;2.45;;;1.90;;
15936;SDS011;9163;48.818;8.976;2022-08-01T13:38:38;2.92;;;2.13;;
15936;SDS011;9163;48.818;8.976;2022-08-01T13:41:23;2.72;;;2.03;;
15936;SDS011;9163;48.818;8.976;2022-08-01T13:43:51;2.10;;;1.90;;
15936;SDS011;9163;48.818;8.976;2022-08-01T13:46:20;3.70;;;2.00;;
15936;SDS011;9163;48.818;8.976;2022-08-01T13:48:49;2.72;;;1.80;;
15936;SDS011;9163;48.818;8.976;2022-08-01T13:51:16;3.45;;;1.90;;
15936;SDS011;9163;48.818;8.976;2022-08-01T13:53:44;2.47;;;1.95;;
15936;SDS011;9163;48.818;8.976;2022-08-01T13:56:11;3.17;;;2.00;;
15936;SDS011;9163;48.818;8.976;2022-08-01T13:58:38;2.95;;;2.00;;
15936;SDS011;9163;48.818;8.976;2022-08-01T14:01:06;3.08;;;2.10;;
15936;SDS011;9163;48.818;8.976;2022-08-01T14:03:33;2.40;;;2.00;;
15936;SDS011;9163;48.818;8.976;2022-08-01T14:06:02;2.70;;;1.70;;
15936;SDS011;9163;48.818;8.976;2022-08-01T14:08:30;2.90;;;2.03;;
15936;SDS011;9163;48.818;8.976;2022-08-01T14:10:58;2.05;;;1.77;;
15936;SDS011;9163;48.818;8.976;2022-08-01T14:13:25;2.95;;;1.90;;
15936;SDS011;9163;48.818;8.976;2022-08-01T14:15:53;2.13;;;1.77;;
15936;SDS011;9163;48.818;8.976;2022-08-01T14:18:21;5.22;;;1.73;;
15936;SDS011;9163;48.818;8.976;2022-08-01T14:20:48;2.42;;;1.88;;
15936;SDS011;9163;48.818;8.976;2022-08-01T14:23:17;3.85;;;2.05;;
15936;SDS011;9163;48.818;8.976;2022-08-01T14:25:44;3.85;;;2.03;;
15936;SDS011;9163;48.818;8.976;2022-08-01T14:28:11;3.00;;;1.85;;
15936;SDS011;9163;48.818;8.976;2022-08-01T14:30:41;2.13;;;1.77;;
15936;SDS011;9163;48.818;8.976;2022-08-01T14:33:09;2.28;;;2.03;;
15936;SDS011;9163;48.818;8.976;2022-08-01T14:35:36;2.60;;;1.70;;
15936;SDS011;9163;48.818;8.976;2022-08-01T14:38:04;2.47;;;2.05;;
15936;SDS011;9163;48.818;8.976;2022-08-01T14:40:33;2.90;;;1.88;;
15936;SDS011;9163;48.818;8.976;2022-08-01T14:43:00;2.13;;;1.90;;
15936;SDS011;9163;48.818;8.976;2022-08-01T14:45:28;2.25;;;2.00;;
15936;SDS011;9163;48.818;8.976;2022-08-01T14:47:55;1.77;;;1.60;;
15936;SDS011;9163;48.818;8.976;2022-08-01T14:50:22;1.92;;;1.73;;
15936;SDS011;9163;48.818;8.976;2022-08-01T14:52:52;2.35;;;1.80;;
15936;SDS011;9163;48.818;8.976;2022-08-01T14:55:19;2.10;;;1.65;;
15936;SDS011;9163;48.818;8.976;2022-08-01T14:57:52;3.05;;;2.00;;
15936;SDS011;9163;48.818;8.976;2022-08-01T15:00:20;2.20;;;1.85;;
15936;SDS011;9163;48.818;8.976;2022-08-01T15:02:48;2.20;;;1.63;;
15936;SDS011;9163;48.818;8.976;2022-08-01T15:05:15;2.65;;;1.85;;
15936;SDS011;9163;48.818;8.976;2022-08-01T15:07:43;2.10;;;1.70;;
15936;SDS011;9163;48.818;8.976;2022-08-01T15:10:10;2.00;;;1.60;;
15936;SDS011;9163;48.818;8.976;2022-08-01T15:12:38;2.03;;;1.67;;
15936;SDS011;9163;48.818;8.976;2022-08-01T15:15:07;1.95;;;1.55;;
15936;SDS011;9163;48.818;8.976;2022-08-01T15:17:35;2.38;;;1.60;;
15936;SDS011;9163;48.818;8.976;2022-08-01T15:20:03;2.03;;;1.70;;
15936;SDS011;9163;48.818;8.976;2022-08-01T15:22:34;3.38;;;1.65;;
15936;SDS011;9163;48.818;8.976;2022-08-01T15:25:02;2.28;;;1.60;;
15936;SDS011;9163;48.818;8.976;2022-08-01T15:27:30;3.47;;;1.80;;
15936;SDS011;9163;48.818;8.976;2022-08-01T15:29:57;1.70;;;1.45;;
15936;SDS011;9163;48.818;8.976;2022-08-01T15:32:26;1.67;;;1.58;;